createdAt,value
2023-05-18T00:00:34.222Z,1.35
2023-05-18T00:03:03.592Z,2.03
2023-05-18T00:05:34.602Z,1.85
2023-05-18T00:08:01.841Z,1.90
2023-05-18T00:10:29.719Z,2.42
2023-05-18T00:12:56.826Z,1.95
2023-05-18T00:15:23.866Z,2.22
2023-05-18T00:17:53.509Z,1.95
2023-05-18T00:20:22.281Z,2.40
2023-05-18T00:22:50.952Z,2.17
2023-05-18T00:25:17.937Z,2.22
2023-05-18T00:27:45.005Z,2.17
2023-05-18T00:30:12.803Z,1.90
2023-05-18T00:32:40.353Z,2.03
2023-05-18T00:35:07.885Z,1.63
2023-05-18T00:37:34.915Z,1.90
2023-05-18T00:40:02.150Z,2.25
2023-05-18T00:42:29.349Z,2.03
2023-05-18T00:44:56.538Z,1.40
2023-05-18T00:47:23.586Z,2.22
2023-05-18T00:49:50.626Z,1.50
2023-05-18T00:52:17.707Z,1.67
2023-05-18T00:54:44.980Z,1.58
2023-05-18T00:57:12.159Z,1.83
2023-05-18T00:59:40.108Z,1.70
2023-05-18T01:02:09.824Z,1.27
2023-05-18T01:04:38.182Z,2.33
2023-05-18T01:07:07.018Z,1.50
2023-05-18T01:09:35.110Z,1.20
2023-05-18T01:12:32.946Z,1.30
2023-05-18T01:15:17.064Z,1.58
2023-05-18T01:18:14.913Z,1.52
2023-05-18T01:20:50.832Z,1.30
2023-05-18T01:25:57.196Z,1.70
2023-05-18T01:28:32.211Z,1.70
2023-05-18T01:31:00.781Z,1.55
2023-05-18T01:33:27.929Z,1.63
2023-05-18T01:35:55.052Z,1.60
2023-05-18T01:38:24.996Z,1.90
2023-05-18T01:41:24.999Z,1.73
2023-05-18T01:44:04.539Z,1.60
2023-05-18T01:46:31.677Z,1.88
2023-05-18T01:49:04.627Z,1.52
2023-05-18T01:51:36.356Z,2.13
2023-05-18T01:54:07.928Z,1.45
2023-05-18T01:56:39.101Z,1.63
2023-05-18T01:59:08.263Z,1.48
2023-05-18T02:01:35.550Z,1.70
2023-05-18T02:04:03.007Z,1.85
2023-05-18T02:06:32.223Z,1.58
2023-05-18T02:08:59.289Z,1.65
2023-05-18T02:11:28.026Z,1.58
2023-05-18T02:13:55.212Z,1.90
2023-05-18T02:16:22.425Z,1.95
2023-05-18T02:18:49.662Z,1.80
2023-05-18T02:21:18.200Z,1.50
2023-05-18T02:23:45.834Z,1.35
2023-05-18T02:26:15.167Z,2.13
2023-05-18T02:28:42.396Z,1.67
2023-05-18T02:31:11.921Z,1.67
2023-05-18T02:33:41.331Z,2.10
2023-05-18T02:36:10.073Z,1.77
2023-05-18T02:38:38.595Z,1.63
2023-05-18T02:41:06.978Z,1.55
2023-05-18T02:43:34.610Z,1.48
2023-05-18T02:46:01.836Z,1.55
2023-05-18T02:48:29.381Z,1.92
2023-05-18T02:50:57.323Z,1.85
2023-05-18T02:53:24.338Z,1.70
2023-05-18T02:55:59.137Z,1.75
2023-05-18T02:58:31.765Z,1.60
2023-05-18T03:01:08.325Z,1.73
2023-05-18T03:03:42.288Z,1.50
2023-05-18T03:06:10.828Z,1.70
2023-05-18T03:08:37.837Z,1.60
2023-05-18T03:11:05.107Z,1.70
2023-05-18T03:13:32.041Z,2.03
2023-05-18T03:15:59.820Z,1.58
2023-05-18T03:18:28.723Z,1.65
2023-05-18T03:20:56.307Z,1.70
2023-05-18T03:23:23.579Z,1.70
2023-05-18T03:25:53.994Z,1.73
2023-05-18T03:28:22.580Z,1.90
2023-05-18T03:30:49.800Z,1.75
2023-05-18T03:33:17.069Z,1.75
2023-05-18T03:35:45.085Z,1.98
2023-05-18T03:38:13.405Z,1.92
2023-05-18T03:40:46.156Z,1.63
2023-05-18T03:43:13.596Z,1.70
2023-05-18T03:45:41.996Z,1.60
2023-05-18T03:48:09.159Z,2.00
2023-05-18T03:50:36.206Z,1.88
2023-05-18T03:53:04.186Z,1.58
2023-05-18T03:55:31.828Z,2.05
2023-05-18T03:58:00.264Z,1.85
2023-05-18T04:00:28.262Z,1.42
2023-05-18T04:02:57.116Z,1.90
2023-05-18T04:05:25.995Z,1.70
2023-05-18T04:07:53.132Z,2.30
2023-05-18T04:10:21.629Z,1.80
2023-05-18T04:12:49.692Z,1.70
2023-05-18T04:15:17.068Z,1.70
2023-05-18T04:17:45.969Z,1.73
2023-05-18T04:20:14.990Z,1.65
2023-05-18T04:22:46.345Z,1.40
2023-05-18T04:25:15.396Z,1.60
2023-05-18T04:27:44.294Z,1.90
2023-05-18T04:30:12.770Z,1.75
2023-05-18T04:32:43.247Z,2.00
2023-05-18T04:35:11.865Z,1.77
2023-05-18T04:37:41.615Z,2.17
2023-05-18T04:40:14.365Z,2.00
2023-05-18T04:42:48.841Z,2.15
2023-05-18T04:45:20.867Z,1.75
2023-05-18T04:47:54.151Z,1.63
2023-05-18T04:50:25.680Z,2.80
2023-05-18T04:52:54.080Z,2.80
2023-05-18T04:55:28.329Z,2.20
2023-05-18T04:57:59.428Z,1.88
2023-05-18T05:00:31.925Z,2.13
2023-05-18T05:02:59.772Z,1.80
2023-05-18T05:05:27.683Z,1.55
2023-05-18T05:07:55.939Z,2.03
2023-05-18T05:10:23.520Z,1.80
2023-05-18T05:12:51.893Z,2.08
2023-05-18T05:15:19.451Z,2.20
2023-05-18T05:17:47.666Z,2.00
2023-05-18T05:20:14.863Z,2.10
2023-05-18T05:22:42.667Z,1.88
2023-05-18T05:25:12.194Z,1.40
2023-05-18T05:27:39.793Z,2.20
2023-05-18T05:30:08.770Z,1.83
2023-05-18T05:32:37.733Z,1.77
2023-05-18T05:35:07.394Z,1.73
2023-05-18T05:37:36.177Z,1.90
2023-05-18T05:40:06.660Z,1.77
2023-05-18T05:42:39.232Z,1.77
2023-05-18T05:45:08.570Z,1.90
2023-05-18T05:47:42.763Z,2.38
2023-05-18T05:50:10.947Z,1.67
2023-05-18T05:52:38.460Z,1.50
2023-05-18T05:55:06.863Z,1.63
2023-05-18T05:57:35.506Z,2.30
2023-05-18T06:00:04.816Z,2.33
2023-05-18T06:02:48.318Z,2.33
2023-05-18T06:05:22.004Z,1.95
2023-05-18T06:07:49.936Z,2.10
2023-05-18T06:10:17.065Z,2.00
2023-05-18T06:12:44.346Z,2.17
2023-05-18T06:15:12.022Z,1.90
2023-05-18T06:17:41.625Z,2.03
2023-05-18T06:20:09.240Z,1.70
2023-05-18T06:22:36.891Z,2.03
2023-05-18T06:25:39.398Z,2.00
2023-05-18T06:28:16.198Z,1.83
2023-05-18T06:30:54.517Z,1.73
2023-05-18T06:33:42.326Z,2.10
2023-05-18T06:36:09.705Z,2.00
2023-05-18T06:38:38.193Z,1.98
2023-05-18T06:41:06.437Z,1.80
2023-05-18T06:43:34.931Z,2.03
2023-05-18T06:46:29.417Z,1.83
2023-05-18T06:49:00.281Z,1.40
2023-05-18T06:51:29.460Z,1.75
2023-05-18T06:53:58.373Z,2.00
2023-05-18T06:56:26.637Z,1.35
2023-05-18T06:58:55.282Z,2.05
2023-05-18T07:01:22.438Z,1.67
2023-05-18T07:03:49.746Z,1.90
2023-05-18T07:06:16.835Z,1.70
2023-05-18T07:08:44.436Z,1.85
2023-05-18T07:11:11.464Z,1.33
2023-05-18T07:13:38.464Z,1.70
2023-05-18T07:16:05.742Z,1.80
2023-05-18T07:18:34.097Z,1.58
2023-05-18T07:21:01.215Z,1.52
2023-05-18T07:23:28.794Z,1.30
2023-05-18T07:25:57.448Z,1.50
2023-05-18T07:28:24.533Z,1.30
2023-05-18T07:30:52.077Z,1.40
2023-05-18T07:33:22.089Z,1.70
2023-05-18T07:35:49.475Z,1.80
2023-05-18T07:38:16.607Z,1.40
2023-05-18T07:40:43.605Z,1.40
2023-05-18T07:43:10.714Z,1.65
2023-05-18T07:45:38.728Z,1.23
2023-05-18T07:48:07.931Z,1.40
2023-05-18T07:50:35.815Z,1.23
2023-05-18T07:53:03.203Z,1.40
2023-05-18T07:55:31.425Z,1.85
2023-05-18T07:58:01.157Z,1.30
2023-05-18T08:00:28.558Z,1.50
2023-05-18T08:02:55.698Z,1.08
2023-05-18T08:05:23.328Z,1.60
2023-05-18T08:07:50.352Z,1.48
2023-05-18T08:10:17.419Z,1.48
2023-05-18T08:12:46.144Z,1.42
2023-05-18T08:15:13.163Z,1.38
2023-05-18T08:17:40.198Z,1.10
2023-05-18T08:20:08.445Z,1.42
2023-05-18T08:22:35.498Z,1.60
2023-05-18T08:25:02.492Z,1.73
2023-05-18T08:27:29.644Z,1.40
2023-05-18T08:29:56.769Z,1.10
2023-05-18T08:32:23.802Z,1.33
2023-05-18T08:34:52.246Z,1.52
2023-05-18T08:37:19.505Z,1.38
2023-05-18T08:39:46.520Z,1.63
2023-05-18T08:42:22.133Z,1.30
2023-05-18T08:45:18.386Z,1.25
2023-05-18T08:47:47.162Z,1.35
2023-05-18T08:50:17.874Z,1.17
2023-05-18T08:52:48.532Z,1.55
2023-05-18T08:55:17.942Z,1.10
2023-05-18T08:57:50.161Z,1.40
2023-05-18T09:00:18.335Z,1.10
2023-05-18T09:02:47.742Z,1.13
2023-05-18T09:05:16.735Z,1.30
2023-05-18T09:07:44.158Z,1.52
2023-05-18T09:10:12.098Z,1.30
2023-05-18T09:12:40.014Z,1.20
2023-05-18T09:15:10.037Z,2.05
2023-05-18T09:17:37.223Z,1.30
2023-05-18T09:20:07.688Z,1.52
2023-05-18T09:22:40.599Z,1.52
2023-05-18T09:25:11.137Z,1.20
2023-05-18T09:27:39.237Z,1.40
2023-05-18T09:30:11.559Z,1.55
2023-05-18T09:32:38.834Z,1.30
2023-05-18T09:35:07.938Z,1.50
2023-05-18T09:37:36.338Z,1.10
2023-05-18T09:40:07.173Z,1.17
2023-05-18T09:42:39.958Z,1.40
2023-05-18T09:45:20.492Z,1.63
2023-05-18T09:47:50.503Z,1.63
2023-05-18T09:50:21.834Z,1.33
2023-05-18T09:52:52.335Z,1.27
2023-05-18T09:55:20.909Z,1.35
2023-05-18T09:57:50.051Z,1.50
2023-05-18T10:00:20.762Z,1.20
2023-05-18T10:02:52.638Z,1.20
2023-05-18T10:05:27.315Z,1.17
2023-05-18T10:07:55.505Z,1.30
2023-05-18T10:10:25.911Z,1.40
2023-05-18T10:12:55.045Z,1.15
2023-05-18T10:15:23.940Z,1.52
2023-05-18T10:17:55.230Z,1.20
2023-05-18T10:20:29.816Z,1.20
2023-05-18T10:23:00.910Z,1.40
2023-05-18T10:25:29.249Z,1.38
2023-05-18T10:28:01.004Z,1.20
2023-05-18T10:30:28.697Z,1.77
2023-05-18T10:32:59.031Z,1.50
2023-05-18T10:35:28.563Z,1.25
2023-05-18T10:37:57.969Z,1.20
2023-05-18T10:40:26.970Z,1.15
2023-05-18T10:42:57.200Z,1.55
2023-05-18T10:45:24.639Z,1.27
2023-05-18T10:47:55.452Z,1.42
2023-05-18T10:50:26.443Z,1.42
2023-05-18T10:52:54.659Z,0.98
2023-05-18T10:55:22.219Z,1.50
2023-05-18T10:57:55.122Z,1.10
2023-05-18T11:00:22.686Z,1.20
2023-05-18T11:02:50.780Z,1.17
2023-05-18T11:05:25.286Z,1.13
2023-05-18T11:08:05.663Z,1.33
2023-05-18T11:10:41.441Z,1.42
2023-05-18T11:13:12.226Z,1.40
2023-05-18T11:15:55.816Z,1.20
2023-05-18T11:18:44.040Z,1.45
2023-05-18T11:21:32.648Z,1.45
2023-05-18T11:24:19.921Z,1.33
2023-05-18T11:26:55.668Z,1.27
2023-05-18T11:29:32.714Z,1.33
2023-05-18T11:32:01.185Z,1.10
2023-05-18T11:34:38.227Z,1.50
2023-05-18T11:37:11.605Z,1.45
2023-05-18T11:39:48.003Z,1.30
2023-05-18T11:42:20.662Z,1.45
2023-05-18T11:44:57.336Z,2.92
2023-05-18T11:47:31.744Z,1.70
2023-05-18T11:50:00.483Z,1.30
2023-05-18T11:52:27.672Z,1.50
2023-05-18T11:54:59.475Z,1.70
2023-05-18T11:57:40.524Z,1.52
2023-05-18T12:00:12.116Z,1.60
2023-05-18T12:02:47.997Z,1.40
2023-05-18T12:05:16.223Z,1.20
2023-05-18T12:07:44.978Z,1.50
2023-05-18T12:10:17.690Z,1.63
2023-05-18T12:12:49.392Z,1.10
2023-05-18T12:15:17.474Z,1.38
2023-05-18T12:17:49.512Z,1.25
2023-05-18T12:20:25.853Z,1.40
2023-05-18T12:22:55.322Z,1.30
2023-05-18T12:25:23.989Z,1.73
2023-05-18T12:27:52.287Z,1.50
2023-05-18T12:30:22.049Z,1.30
2023-05-18T12:32:56.657Z,1.40
2023-05-18T12:35:27.515Z,1.10
2023-05-18T12:37:56.188Z,1.52
2023-05-18T12:40:23.606Z,1.58
2023-05-18T12:43:01.252Z,1.52
2023-05-18T12:45:34.504Z,1.20
2023-05-18T12:48:10.728Z,1.13
2023-05-18T12:50:46.984Z,1.35
2023-05-18T12:53:14.182Z,1.30
2023-05-18T12:55:41.653Z,1.30
2023-05-18T12:58:18.344Z,1.63
2023-05-18T13:00:47.689Z,1.45
2023-05-18T13:03:17.755Z,1.67
2023-05-18T13:05:46.466Z,1.25
2023-05-18T13:08:22.315Z,1.50
2023-05-18T13:11:01.384Z,1.10
2023-05-18T13:13:33.575Z,1.55
2023-05-18T13:16:00.661Z,1.20
2023-05-18T13:18:28.515Z,2.33
2023-05-18T13:20:58.228Z,1.85
2023-05-18T13:23:28.486Z,1.60
2023-05-18T13:25:58.440Z,1.45
2023-05-18T13:28:27.505Z,1.50
2023-05-18T13:30:55.514Z,1.35
2023-05-18T13:33:23.558Z,1.50
2023-05-18T13:35:50.768Z,1.20
2023-05-18T13:38:17.859Z,1.73
2023-05-18T13:40:46.581Z,1.63
2023-05-18T13:43:14.100Z,1.35
2023-05-18T13:45:42.411Z,1.50
2023-05-18T13:48:11.074Z,1.90
2023-05-18T13:50:39.159Z,1.38
2023-05-18T13:53:07.032Z,1.20
2023-05-18T13:55:34.576Z,1.70
2023-05-18T13:58:01.954Z,1.42
2023-05-18T14:00:29.187Z,1.23
2023-05-18T14:02:56.817Z,1.63
2023-05-18T14:05:24.427Z,1.35
2023-05-18T14:07:52.729Z,1.17
2023-05-18T14:10:20.541Z,1.30
2023-05-18T14:12:47.631Z,1.52
2023-05-18T14:15:15.389Z,1.15
2023-05-18T14:17:43.116Z,1.80
2023-05-18T14:20:11.413Z,1.40
2023-05-18T14:22:38.977Z,1.20
2023-05-18T14:25:06.493Z,1.30
2023-05-18T14:27:33.545Z,1.20
2023-05-18T14:30:01.413Z,1.08
2023-05-18T14:32:28.644Z,1.27
2023-05-18T14:34:58.094Z,1.00
2023-05-18T14:37:25.723Z,1.15
2023-05-18T14:39:52.836Z,1.30
2023-05-18T14:42:21.106Z,1.13
2023-05-18T14:44:49.605Z,1.33
2023-05-18T14:47:17.947Z,1.30
2023-05-18T14:49:45.922Z,1.27
2023-05-18T14:52:13.663Z,1.23
2023-05-18T14:54:42.318Z,1.42
2023-05-18T14:57:10.235Z,1.30
2023-05-18T14:59:37.335Z,1.27
2023-05-18T15:02:04.654Z,1.30
2023-05-18T15:04:31.680Z,1.60
2023-05-18T15:06:58.770Z,1.20
2023-05-18T15:09:26.973Z,1.30
2023-05-18T15:11:54.204Z,1.20
2023-05-18T15:14:21.226Z,1.10
2023-05-18T15:16:48.417Z,1.00
2023-05-18T15:19:15.457Z,1.30
2023-05-18T15:21:44.878Z,1.10
2023-05-18T15:24:11.970Z,1.25
2023-05-18T15:26:40.040Z,1.40
2023-05-18T15:29:07.022Z,1.15
2023-05-18T15:31:34.173Z,1.27
2023-05-18T15:34:01.233Z,1.27
2023-05-18T15:36:29.426Z,1.20
2023-05-18T15:38:56.311Z,1.20
2023-05-18T15:41:24.249Z,1.10
2023-05-18T15:43:51.320Z,1.23
2023-05-18T15:46:18.401Z,1.30
2023-05-18T15:48:45.434Z,1.05
2023-05-18T15:51:12.612Z,1.75
2023-05-18T15:53:40.194Z,1.40
2023-05-18T15:56:07.325Z,1.10
2023-05-18T15:58:35.356Z,1.10
2023-05-18T16:01:02.976Z,1.27
2023-05-18T16:03:30.287Z,1.45
2023-05-18T16:05:58.255Z,1.42
2023-05-18T16:08:25.289Z,1.45
2023-05-18T16:10:54.485Z,1.60
2023-05-18T16:13:25.887Z,1.15
2023-05-18T16:15:52.995Z,1.00
2023-05-18T16:18:20.037Z,1.27
2023-05-18T16:20:47.765Z,1.33
2023-05-18T16:23:15.132Z,1.10
2023-05-18T16:25:42.754Z,1.17
2023-05-18T16:28:09.654Z,1.20
2023-05-18T16:30:36.711Z,1.05
2023-05-18T16:33:04.101Z,1.00
2023-05-18T16:35:32.710Z,1.30
2023-05-18T16:38:00.718Z,1.30
2023-05-18T16:40:31.227Z,1.30
2023-05-18T16:42:58.572Z,0.80
2023-05-18T16:45:27.367Z,1.30
2023-05-18T16:47:58.972Z,1.30
2023-05-18T16:50:27.899Z,1.30
2023-05-18T16:52:55.131Z,1.65
2023-05-18T16:55:23.847Z,1.20
2023-05-18T16:57:51.557Z,1.13
2023-05-18T17:00:19.750Z,1.52
2023-05-18T17:02:47.032Z,1.55
2023-05-18T17:05:17.142Z,1.35
2023-05-18T17:07:44.681Z,1.40
2023-05-18T17:10:12.226Z,1.30
2023-05-18T17:12:39.890Z,1.20
2023-05-18T17:15:07.516Z,1.35
2023-05-18T17:17:34.637Z,1.30
2023-05-18T17:20:02.360Z,1.40
2023-05-18T17:22:29.665Z,1.27
2023-05-18T17:24:56.625Z,1.73
2023-05-18T17:27:23.736Z,1.45
2023-05-18T17:29:50.867Z,1.38
2023-05-18T17:32:17.965Z,1.52
2023-05-18T17:34:44.985Z,1.80
2023-05-18T17:37:12.016Z,1.45
2023-05-18T17:39:39.537Z,1.67
2023-05-18T17:42:07.368Z,1.20
2023-05-18T17:44:34.442Z,1.60
2023-05-18T17:47:01.706Z,1.38
2023-05-18T17:49:28.858Z,1.70
2023-05-18T17:51:57.604Z,1.20
2023-05-18T17:54:26.031Z,1.30
2023-05-18T17:56:53.164Z,1.30
2023-05-18T17:59:20.335Z,1.42
2023-05-18T18:01:48.492Z,2.33
2023-05-18T18:04:17.873Z,1.90
2023-05-18T18:06:45.619Z,2.08
2023-05-18T18:09:12.901Z,1.80
2023-05-18T18:11:40.154Z,1.83
2023-05-18T18:14:07.388Z,2.00
2023-05-18T18:16:35.057Z,1.80
2023-05-18T18:19:02.969Z,1.67
2023-05-18T18:21:30.048Z,1.60
2023-05-18T18:23:57.428Z,2.10
2023-05-18T18:26:24.483Z,1.90
2023-05-18T18:28:51.554Z,1.48
2023-05-18T18:31:20.395Z,1.63
2023-05-18T18:33:50.335Z,1.40
2023-05-18T18:36:17.803Z,1.45
2023-05-18T18:38:45.924Z,1.52
2023-05-18T18:41:15.151Z,2.15
2023-05-18T18:43:42.207Z,1.77
2023-05-18T18:46:09.756Z,1.70
2023-05-18T18:48:36.811Z,2.08
2023-05-18T18:51:03.995Z,1.55
2023-05-18T18:53:31.126Z,1.80
2023-05-18T18:55:59.787Z,1.90
2023-05-18T18:58:27.003Z,1.50
2023-05-18T19:00:54.179Z,1.75
2023-05-18T19:03:21.937Z,1.80
2023-05-18T19:05:49.936Z,1.77
2023-05-18T19:08:17.302Z,1.60
2023-05-18T19:10:44.880Z,1.60
2023-05-18T19:13:11.830Z,1.80
2023-05-18T19:15:39.202Z,1.80
2023-05-18T19:18:07.817Z,1.60
2023-05-18T19:20:35.904Z,1.67
2023-05-18T19:23:05.687Z,1.98
2023-05-18T19:25:33.512Z,2.33
2023-05-18T19:28:00.812Z,2.10
2023-05-18T19:30:27.942Z,1.73
2023-05-18T19:32:55.035Z,1.60
2023-05-18T19:35:23.860Z,2.83
2023-05-18T19:37:52.534Z,1.77
2023-05-18T19:40:19.944Z,2.40
2023-05-18T19:42:48.497Z,1.85
2023-05-18T19:45:16.268Z,1.75
2023-05-18T19:47:44.123Z,1.50
2023-05-18T19:50:11.669Z,1.70
2023-05-18T19:52:38.699Z,1.90
2023-05-18T19:55:07.200Z,1.80
2023-05-18T19:57:34.642Z,1.15
2023-05-18T20:00:02.429Z,1.50
2023-05-18T20:02:39.372Z,1.42
2023-05-18T20:05:12.631Z,1.52
2023-05-18T20:07:39.966Z,1.95
2023-05-18T20:10:07.170Z,2.20
2023-05-18T20:12:34.191Z,2.30
2023-05-18T20:15:01.421Z,2.15
2023-05-18T20:17:28.500Z,2.10
2023-05-18T20:19:56.646Z,1.70
2023-05-18T20:22:24.004Z,1.50
2023-05-18T20:24:51.297Z,1.30
2023-05-18T20:27:18.350Z,1.73
2023-05-18T20:29:45.524Z,1.83
2023-05-18T20:32:12.636Z,1.73
2023-05-18T20:34:41.550Z,1.60
2023-05-18T20:37:10.963Z,1.75
2023-05-18T20:39:40.894Z,1.55
2023-05-18T20:42:12.700Z,1.65
2023-05-18T20:44:40.014Z,1.50
2023-05-18T20:47:07.451Z,1.52
2023-05-18T20:49:34.411Z,1.73
2023-05-18T20:52:01.458Z,1.25
2023-05-18T20:54:28.452Z,1.77
2023-05-18T20:56:57.107Z,1.48
2023-05-18T20:59:25.198Z,1.60
2023-05-18T21:01:53.099Z,2.47
2023-05-18T21:04:20.408Z,1.77
2023-05-18T21:06:49.354Z,1.70
2023-05-18T21:09:17.386Z,1.95
2023-05-18T21:11:44.416Z,1.48
2023-05-18T21:14:12.124Z,1.73
2023-05-18T21:16:39.617Z,1.63
2023-05-18T21:19:07.683Z,1.60
2023-05-18T21:21:34.786Z,1.48
2023-05-18T21:24:03.193Z,2.88
2023-05-18T21:26:30.349Z,2.92
2023-05-18T21:28:57.678Z,3.00
2023-05-18T21:31:24.800Z,3.70
2023-05-18T21:33:52.809Z,4.68
2023-05-18T21:36:34.347Z,3.70
2023-05-18T21:39:04.176Z,2.53
2023-05-18T21:41:31.945Z,2.13
2023-05-18T21:43:59.236Z,2.13
2023-05-18T21:46:27.809Z,2.05
2023-05-18T21:48:55.619Z,1.90
2023-05-18T21:51:23.012Z,2.10
2023-05-18T21:53:50.170Z,1.60
2023-05-18T21:56:18.508Z,1.80
2023-05-18T21:58:45.724Z,1.73
2023-05-18T22:01:12.856Z,1.85
2023-05-18T22:03:39.959Z,1.58
2023-05-18T22:06:07.290Z,1.83
2023-05-18T22:08:35.314Z,1.60
2023-05-18T22:11:03.289Z,1.95
2023-05-18T22:13:30.972Z,1.52
2023-05-18T22:15:58.022Z,1.75
2023-05-18T22:18:27.062Z,1.63
2023-05-18T22:20:55.043Z,1.88
2023-05-18T22:23:22.555Z,1.52
2023-05-18T22:25:49.771Z,1.90
2023-05-18T22:28:21.405Z,1.58
2023-05-18T22:30:51.727Z,1.67
2023-05-18T22:33:21.178Z,1.70
2023-05-18T22:35:49.708Z,1.90
2023-05-18T22:38:17.928Z,1.95
2023-05-18T22:40:45.776Z,2.08
2023-05-18T22:43:13.050Z,1.92
2023-05-18T22:45:40.088Z,1.75
2023-05-18T22:48:07.284Z,1.90
2023-05-18T22:50:34.836Z,1.58
2023-05-18T22:53:02.530Z,1.50
2023-05-18T22:55:30.168Z,1.52
2023-05-18T22:57:57.199Z,1.42
2023-05-18T23:00:24.268Z,1.85
2023-05-18T23:02:53.286Z,1.90
2023-05-18T23:05:20.814Z,1.90
2023-05-18T23:07:50.126Z,1.85
2023-05-18T23:10:18.783Z,2.38
2023-05-18T23:12:48.455Z,2.30
2023-05-18T23:15:15.525Z,2.85
2023-05-18T23:17:42.722Z,2.88
2023-05-18T23:20:11.534Z,3.58
2023-05-18T23:22:38.752Z,4.35
2023-05-18T23:25:08.725Z,3.90
2023-05-18T23:27:36.212Z,2.65
2023-05-18T23:30:03.478Z,2.42
2023-05-18T23:32:30.842Z,2.38
2023-05-18T23:35:00.016Z,2.28
2023-05-18T23:37:28.920Z,2.05
2023-05-18T23:39:56.989Z,2.50
2023-05-18T23:42:26.319Z,2.00
2023-05-18T23:44:54.332Z,2.10
2023-05-18T23:47:22.070Z,2.63
2023-05-18T23:49:50.762Z,2.30
2023-05-18T23:52:21.581Z,2.20
2023-05-18T23:54:53.461Z,2.20
2023-05-18T23:57:21.032Z,2.45
2023-05-18T23:59:49.100Z,2.40
